createdAt,value
2023-01-29T00:00:24.671Z,60.55
2023-01-29T00:01:24.842Z,60.44
2023-01-29T00:02:25.121Z,60.24
2023-01-29T00:03:25.287Z,60.55
2023-01-29T00:04:25.363Z,60.65
2023-01-29T00:05:28.322Z,60.44
2023-01-29T00:06:25.719Z,60.44
2023-01-29T00:07:25.917Z,60.34
2023-01-29T00:08:26.065Z,60.24
2023-01-29T00:09:26.219Z,60.24
2023-01-29T00:10:26.416Z,60.44
2023-01-29T00:11:26.616Z,60.34
2023-01-29T00:12:26.795Z,60.44
2023-01-29T00:13:26.948Z,60.44
2023-01-29T00:14:27.139Z,60.55
2023-01-29T00:15:27.314Z,60.44
2023-01-29T00:16:27.476Z,60.21
2023-01-29T00:17:27.644Z,60.34
2023-01-29T00:18:27.794Z,60.31
2023-01-29T00:19:27.968Z,60.31
2023-01-29T00:20:28.116Z,60.42
2023-01-29T00:21:28.336Z,60.42
2023-01-29T00:22:28.501Z,60.42
2023-01-29T00:23:28.651Z,60.31
2023-01-29T00:24:28.946Z,60.31
2023-01-29T00:25:29.007Z,60.21
2023-01-29T00:26:29.220Z,60.11
2023-01-29T00:27:29.357Z,60.21
2023-01-29T00:28:29.567Z,60.00
2023-01-29T00:29:29.725Z,60.11
2023-01-29T00:30:29.885Z,60.11
2023-01-29T00:31:30.215Z,60.21
2023-01-29T00:32:30.249Z,60.42
2023-01-29T00:33:30.393Z,60.21
2023-01-29T00:34:30.607Z,59.90
2023-01-29T00:35:30.754Z,60.00
2023-01-29T00:36:30.977Z,60.31
2023-01-29T00:37:31.109Z,60.31
2023-01-29T00:38:31.300Z,60.21
2023-01-29T00:39:46.774Z,60.21
2023-01-29T00:40:32.659Z,60.21
2023-01-29T00:41:31.845Z,60.11
2023-01-29T00:42:31.999Z,60.11
2023-01-29T00:43:32.185Z,60.21
2023-01-29T00:44:32.391Z,60.00
2023-01-29T00:45:32.533Z,60.21
2023-01-29T00:46:32.749Z,60.31
2023-01-29T00:47:32.852Z,60.42
2023-01-29T00:48:33.040Z,60.21
2023-01-29T00:49:33.229Z,60.21
2023-01-29T00:50:33.390Z,60.21
2023-01-29T00:51:33.593Z,60.42
2023-01-29T00:52:33.739Z,60.31
2023-01-29T00:53:33.921Z,60.00
2023-01-29T00:54:34.112Z,60.00
2023-01-29T00:55:34.283Z,60.31
2023-01-29T00:56:34.431Z,60.31
2023-01-29T00:57:34.624Z,60.21
2023-01-29T00:58:34.807Z,60.31
2023-01-29T00:59:34.985Z,60.31
2023-01-29T01:00:35.199Z,60.21
2023-01-29T01:01:35.301Z,60.08
2023-01-29T01:02:35.480Z,60.08
2023-01-29T01:03:35.650Z,60.08
2023-01-29T01:04:35.793Z,60.21
2023-01-29T01:05:35.956Z,60.08
2023-01-29T01:06:36.155Z,60.08
2023-01-29T01:07:36.262Z,60.11
2023-01-29T01:08:36.460Z,60.08
2023-01-29T01:09:36.615Z,60.11
2023-01-29T01:10:36.773Z,60.21
2023-01-29T01:11:36.963Z,60.52
2023-01-29T01:12:37.149Z,60.52
2023-01-29T01:13:37.301Z,60.42
2023-01-29T01:14:37.493Z,60.42
2023-01-29T01:15:37.640Z,60.42
2023-01-29T01:16:37.939Z,60.49
2023-01-29T01:17:38.010Z,60.52
2023-01-29T01:18:38.229Z,60.70
2023-01-29T01:19:38.334Z,60.49
2023-01-29T01:20:38.556Z,60.49
2023-01-29T01:21:38.733Z,60.28
2023-01-29T01:22:38.875Z,60.28
2023-01-29T01:23:39.056Z,60.28
2023-01-29T01:24:39.250Z,60.39
2023-01-29T01:25:39.430Z,60.60
2023-01-29T01:26:39.596Z,60.49
2023-01-29T01:27:39.757Z,60.49
2023-01-29T01:28:39.911Z,60.49
2023-01-29T01:29:40.097Z,60.49
2023-01-29T01:30:40.294Z,60.39
2023-01-29T01:31:40.467Z,60.28
2023-01-29T01:32:40.601Z,60.28
2023-01-29T01:33:40.788Z,60.28
2023-01-29T01:34:40.947Z,60.39
2023-01-29T01:35:41.124Z,60.28
2023-01-29T01:36:41.347Z,60.28
2023-01-29T01:37:41.492Z,60.16
2023-01-29T01:38:41.647Z,60.28
2023-01-29T01:39:41.829Z,60.16
2023-01-29T01:40:42.028Z,60.18
2023-01-29T01:41:42.220Z,60.16
2023-01-29T01:42:42.421Z,60.18
2023-01-29T01:43:42.568Z,60.28
2023-01-29T01:44:42.748Z,60.28
2023-01-29T01:45:43.021Z,60.28
2023-01-29T01:46:43.139Z,60.28
2023-01-29T01:47:43.296Z,60.18
2023-01-29T01:48:43.441Z,60.28
2023-01-29T01:49:43.602Z,60.39
2023-01-29T01:50:43.763Z,60.39
2023-01-29T01:51:43.930Z,60.39
2023-01-29T01:52:44.078Z,60.49
2023-01-29T01:53:44.294Z,60.49
2023-01-29T01:54:44.463Z,60.49
2023-01-29T01:55:44.612Z,60.49
2023-01-29T01:56:44.754Z,60.49
2023-01-29T01:57:44.931Z,60.49
2023-01-29T01:58:45.075Z,60.49
2023-01-29T01:59:45.251Z,60.49
2023-01-29T02:00:45.419Z,60.49
2023-01-29T02:01:45.561Z,60.60
2023-01-29T02:02:45.712Z,60.60
2023-01-29T02:03:45.906Z,60.70
2023-01-29T02:04:46.035Z,60.70
2023-01-29T02:05:46.231Z,60.70
2023-01-29T02:06:46.389Z,60.80
2023-01-29T02:07:46.544Z,60.80
2023-01-29T02:08:46.738Z,60.80
2023-01-29T02:09:46.893Z,60.91
2023-01-29T02:10:47.058Z,60.80
2023-01-29T02:11:47.234Z,60.80
2023-01-29T02:12:47.413Z,60.91
2023-01-29T02:13:47.591Z,60.80
2023-01-29T02:14:47.733Z,60.80
2023-01-29T02:15:47.904Z,60.91
2023-01-29T02:16:48.077Z,60.88
2023-01-29T02:17:48.380Z,60.80
2023-01-29T02:18:48.463Z,60.80
2023-01-29T02:19:48.632Z,60.77
2023-01-29T02:20:48.773Z,60.70
2023-01-29T02:21:48.962Z,60.70
2023-01-29T02:22:49.155Z,60.67
2023-01-29T02:23:49.396Z,60.77
2023-01-29T02:24:49.530Z,60.77
2023-01-29T02:25:49.689Z,60.77
2023-01-29T02:26:49.834Z,60.67
2023-01-29T02:27:50.028Z,60.67
2023-01-29T02:28:50.205Z,60.67
2023-01-29T02:29:50.435Z,60.57
2023-01-29T02:30:50.649Z,60.67
2023-01-29T02:31:50.844Z,60.67
2023-01-29T02:32:50.906Z,60.57
2023-01-29T02:33:51.083Z,60.57
2023-01-29T02:34:51.256Z,60.67
2023-01-29T02:35:51.416Z,60.67
2023-01-29T02:36:51.605Z,60.67
2023-01-29T02:37:51.769Z,60.77
2023-01-29T02:38:51.950Z,60.67
2023-01-29T02:39:52.162Z,60.57
2023-01-29T02:40:52.306Z,60.47
2023-01-29T02:41:52.468Z,60.57
2023-01-29T02:42:52.646Z,60.67
2023-01-29T02:43:52.838Z,60.77
2023-01-29T02:44:53.029Z,60.67
2023-01-29T02:45:53.199Z,60.88
2023-01-29T02:46:53.339Z,61.01
2023-01-29T02:47:53.543Z,60.98
2023-01-29T02:48:53.716Z,60.91
2023-01-29T02:49:53.927Z,60.88
2023-01-29T02:50:54.070Z,60.77
2023-01-29T02:51:54.238Z,60.91
2023-01-29T02:52:54.417Z,60.91
2023-01-29T02:53:54.611Z,60.91
2023-01-29T02:54:54.809Z,60.88
2023-01-29T02:55:54.974Z,60.91
2023-01-29T02:56:55.121Z,60.91
2023-01-29T02:57:55.309Z,61.08
2023-01-29T02:58:55.470Z,61.08
2023-01-29T02:59:55.626Z,60.98
2023-01-29T03:00:55.862Z,60.88
2023-01-29T03:01:56.034Z,60.88
2023-01-29T03:02:56.163Z,60.98
2023-01-29T03:03:56.341Z,60.77
2023-01-29T03:04:56.531Z,60.77
2023-01-29T03:05:56.741Z,60.77
2023-01-29T03:06:56.904Z,60.88
2023-01-29T03:07:57.049Z,60.88
2023-01-29T03:08:57.204Z,60.77
2023-01-29T03:09:57.395Z,60.67
2023-01-29T03:10:57.566Z,60.67
2023-01-29T03:11:57.715Z,60.67
2023-01-29T03:12:57.872Z,60.88
2023-01-29T03:13:58.062Z,60.88
2023-01-29T03:14:58.237Z,60.98
2023-01-29T03:15:58.443Z,60.88
2023-01-29T03:16:58.588Z,60.77
2023-01-29T03:17:58.783Z,60.88
2023-01-29T03:18:58.954Z,60.88
2023-01-29T03:19:59.152Z,60.88
2023-01-29T03:20:59.325Z,60.77
2023-01-29T03:21:59.795Z,60.88
2023-01-29T03:22:59.653Z,61.01
2023-01-29T03:23:59.838Z,60.98
2023-01-29T03:24:59.994Z,61.08
2023-01-29T03:26:00.200Z,60.98
2023-01-29T03:27:00.347Z,61.11
2023-01-29T03:28:00.533Z,61.19
2023-01-29T03:29:00.685Z,61.19
2023-01-29T03:30:00.846Z,61.32
2023-01-29T03:31:01.013Z,61.32
2023-01-29T03:32:01.244Z,61.19
2023-01-29T03:33:01.345Z,61.22
2023-01-29T03:34:01.547Z,61.22
2023-01-29T03:35:01.674Z,61.19
2023-01-29T03:36:01.866Z,61.19
2023-01-29T03:37:02.030Z,61.19
2023-01-29T03:38:02.204Z,61.19
2023-01-29T03:39:02.356Z,61.19
2023-01-29T03:40:02.551Z,61.29
2023-01-29T03:41:02.714Z,61.29
2023-01-29T03:42:02.875Z,61.19
2023-01-29T03:43:03.080Z,61.29
2023-01-29T03:44:03.241Z,61.29
2023-01-29T03:45:03.403Z,61.32
2023-01-29T03:46:03.624Z,61.29
2023-01-29T03:47:03.767Z,61.40
2023-01-29T03:48:03.947Z,61.40
2023-01-29T03:49:04.088Z,61.40
2023-01-29T03:50:04.229Z,61.50
2023-01-29T03:51:04.389Z,61.50
2023-01-29T03:52:04.549Z,61.52
2023-01-29T03:53:04.760Z,61.40
2023-01-29T03:54:04.915Z,61.40
2023-01-29T03:55:05.138Z,61.40
2023-01-29T03:56:05.292Z,61.50
2023-01-29T03:57:05.452Z,61.50
2023-01-29T03:58:05.653Z,61.40
2023-01-29T03:59:05.804Z,61.40
2023-01-29T04:00:06.003Z,61.40
2023-01-29T04:01:06.252Z,61.29
2023-01-29T04:02:06.319Z,61.40
2023-01-29T04:03:06.522Z,61.40
2023-01-29T04:04:06.744Z,61.50
2023-01-29T04:05:06.852Z,61.50
2023-01-29T04:06:07.019Z,61.50
2023-01-29T04:07:07.176Z,61.40
2023-01-29T04:08:07.382Z,61.29
2023-01-29T04:09:07.532Z,61.40
2023-01-29T04:10:07.712Z,61.40
2023-01-29T04:11:07.861Z,61.40
2023-01-29T04:12:08.033Z,61.40
2023-01-29T04:13:08.222Z,61.40
2023-01-29T04:14:08.362Z,61.29
2023-01-29T04:15:08.530Z,61.40
2023-01-29T04:16:08.722Z,61.40
2023-01-29T04:17:08.867Z,61.40
2023-01-29T04:18:09.048Z,61.50
2023-01-29T04:19:09.213Z,61.40
2023-01-29T04:20:09.367Z,61.40
2023-01-29T04:21:09.526Z,61.40
2023-01-29T04:22:09.694Z,61.40
2023-01-29T04:23:09.894Z,61.40
2023-01-29T04:24:10.102Z,61.50
2023-01-29T04:25:10.234Z,61.60
2023-01-29T04:26:10.406Z,61.60
2023-01-29T04:27:10.558Z,61.60
2023-01-29T04:28:10.743Z,61.60
2023-01-29T04:29:10.898Z,61.60
2023-01-29T04:30:11.069Z,61.60
2023-01-29T04:31:11.325Z,61.70
2023-01-29T04:32:11.412Z,61.70
2023-01-29T04:33:11.596Z,61.70
2023-01-29T04:34:11.750Z,61.70
2023-01-29T04:35:11.921Z,61.70
2023-01-29T04:36:12.087Z,61.70
2023-01-29T04:37:12.251Z,61.70
2023-01-29T04:38:12.421Z,61.68
2023-01-29T04:39:12.578Z,61.70
2023-01-29T04:40:12.758Z,61.68
2023-01-29T04:41:12.906Z,61.80
2023-01-29T04:42:13.096Z,61.70
2023-01-29T04:43:13.261Z,61.80
2023-01-29T04:44:13.426Z,61.78
2023-01-29T04:45:13.595Z,61.78
2023-01-29T04:46:13.777Z,61.78
2023-01-29T04:47:13.947Z,61.68
2023-01-29T04:48:14.097Z,61.68
2023-01-29T04:49:14.258Z,61.78
2023-01-29T04:50:14.872Z,61.78
2023-01-29T04:51:14.582Z,61.78
2023-01-29T04:52:14.770Z,61.78
2023-01-29T04:53:14.929Z,61.88
2023-01-29T04:54:15.102Z,61.88
2023-01-29T04:55:15.279Z,61.88
2023-01-29T04:56:15.431Z,61.88
2023-01-29T04:57:15.609Z,61.88
2023-01-29T04:58:15.778Z,61.88
2023-01-29T04:59:15.931Z,61.88
2023-01-29T05:00:16.477Z,62.08
2023-01-29T05:01:16.259Z,62.08
2023-01-29T05:02:16.444Z,62.08
2023-01-29T05:03:16.610Z,62.19
2023-01-29T05:04:16.770Z,62.19
2023-01-29T05:05:16.931Z,62.19
2023-01-29T05:06:17.138Z,62.29
2023-01-29T05:07:17.299Z,62.29
2023-01-29T05:08:17.487Z,62.29
2023-01-29T05:09:17.621Z,62.40
2023-01-29T05:10:18.250Z,62.29
2023-01-29T05:11:17.989Z,62.50
2023-01-29T05:12:18.174Z,62.60
2023-01-29T05:13:18.331Z,62.60
2023-01-29T05:14:18.507Z,62.50
2023-01-29T05:15:18.643Z,62.60
2023-01-29T05:16:18.866Z,62.50
2023-01-29T05:17:19.038Z,62.60
2023-01-29T05:18:19.195Z,62.71
2023-01-29T05:19:19.357Z,62.92
2023-01-29T05:20:19.523Z,62.92
2023-01-29T05:21:19.696Z,63.12
2023-01-29T05:22:19.884Z,63.12
2023-01-29T05:23:20.032Z,63.12
2023-01-29T05:24:20.241Z,63.12
2023-01-29T05:25:20.364Z,63.12
2023-01-29T05:26:20.533Z,63.22
2023-01-29T05:27:20.713Z,63.22
2023-01-29T05:28:20.880Z,63.01
2023-01-29T05:29:21.034Z,63.01
2023-01-29T05:30:21.212Z,63.22
2023-01-29T05:31:21.411Z,63.32
2023-01-29T05:32:21.536Z,63.12
2023-01-29T05:33:21.694Z,63.43
2023-01-29T05:34:21.856Z,63.43
2023-01-29T05:35:22.020Z,63.53
2023-01-29T05:36:22.195Z,63.22
2023-01-29T05:37:22.366Z,63.32
2023-01-29T05:38:22.527Z,63.84
2023-01-29T05:39:22.688Z,63.84
2023-01-29T05:40:22.869Z,64.04
2023-01-29T05:41:23.054Z,63.84
2023-01-29T05:42:23.217Z,63.95
2023-01-29T05:43:23.402Z,64.25
2023-01-29T05:44:23.535Z,64.53
2023-01-29T05:45:23.705Z,64.77
2023-01-29T05:46:23.898Z,64.87
2023-01-29T05:47:24.045Z,65.08
2023-01-29T05:48:24.223Z,65.08
2023-01-29T05:49:24.385Z,65.39
2023-01-29T05:50:24.568Z,65.49
2023-01-29T05:51:24.753Z,64.98
2023-01-29T05:52:24.918Z,64.67
2023-01-29T05:53:25.079Z,65.39
2023-01-29T05:54:25.248Z,65.49
2023-01-29T05:55:25.428Z,65.18
2023-01-29T05:56:25.589Z,65.28
2023-01-29T05:57:25.760Z,65.18
2023-01-29T05:58:25.930Z,65.28
2023-01-29T05:59:26.099Z,65.28
2023-01-29T06:00:26.287Z,65.18
2023-01-29T06:01:26.458Z,65.18
2023-01-29T06:02:26.623Z,65.18
2023-01-29T06:03:26.793Z,65.39
2023-01-29T06:04:26.954Z,65.59
2023-01-29T06:05:27.141Z,65.46
2023-01-29T06:06:27.298Z,65.67
2023-01-29T06:07:27.465Z,65.59
2023-01-29T06:08:27.656Z,65.49
2023-01-29T06:09:27.820Z,65.70
2023-01-29T06:10:27.979Z,65.59
2023-01-29T06:11:28.163Z,65.67
2023-01-29T06:12:28.324Z,65.88
2023-01-29T06:13:28.522Z,66.11
2023-01-29T06:14:28.671Z,66.01
2023-01-29T06:15:28.850Z,65.80
2023-01-29T06:16:29.057Z,66.11
2023-01-29T06:17:29.193Z,66.11
2023-01-29T06:18:29.372Z,66.01
2023-01-29T06:19:29.528Z,66.21
2023-01-29T06:20:29.697Z,66.01
2023-01-29T06:21:29.864Z,66.31
2023-01-29T06:22:30.035Z,66.11
2023-01-29T06:23:30.223Z,66.01
2023-01-29T06:24:30.413Z,66.01
2023-01-29T06:25:30.574Z,66.28
2023-01-29T06:26:30.725Z,66.31
2023-01-29T06:27:30.919Z,66.21
2023-01-29T06:28:31.084Z,66.31
2023-01-29T06:29:31.245Z,66.31
2023-01-29T06:30:31.417Z,66.42
2023-01-29T06:31:39.739Z,66.31
2023-01-29T06:32:32.781Z,66.42
2023-01-29T06:33:31.962Z,66.63
2023-01-29T06:34:32.076Z,66.73
2023-01-29T06:35:32.245Z,66.83
2023-01-29T06:36:32.400Z,66.73
2023-01-29T06:37:32.585Z,66.83
2023-01-29T06:38:32.746Z,66.73
2023-01-29T06:39:32.918Z,66.83
2023-01-29T06:40:33.074Z,66.83
2023-01-29T06:41:33.244Z,66.63
2023-01-29T06:42:33.427Z,66.83
2023-01-29T06:43:33.612Z,67.03
2023-01-29T06:44:33.776Z,66.83
2023-01-29T06:45:33.979Z,66.94
2023-01-29T06:46:34.097Z,67.14
2023-01-29T06:47:34.268Z,67.14
2023-01-29T06:48:34.457Z,67.14
2023-01-29T06:49:34.625Z,67.14
2023-01-29T06:50:34.779Z,67.03
2023-01-29T06:51:34.957Z,66.94
2023-01-29T06:52:35.108Z,67.03
2023-01-29T06:53:35.289Z,66.94
2023-01-29T06:54:35.448Z,67.03
2023-01-29T06:55:35.620Z,66.94
2023-01-29T06:56:35.773Z,66.94
2023-01-29T06:57:35.944Z,67.03
2023-01-29T06:58:36.137Z,67.03
2023-01-29T06:59:36.290Z,67.03
2023-01-29T07:00:36.481Z,67.03
2023-01-29T07:01:36.948Z,67.14
2023-01-29T07:02:36.800Z,67.24
2023-01-29T07:03:36.981Z,67.45
2023-01-29T07:04:37.148Z,67.35
2023-01-29T07:05:37.325Z,67.24
2023-01-29T07:06:37.501Z,67.24
2023-01-29T07:07:37.689Z,67.14
2023-01-29T07:08:37.877Z,67.03
2023-01-29T07:09:38.030Z,67.14
2023-01-29T07:10:38.200Z,67.35
2023-01-29T07:11:38.373Z,67.24
2023-01-29T07:12:38.555Z,67.35
2023-01-29T07:13:38.753Z,67.35
2023-01-29T07:14:38.905Z,67.35
2023-01-29T07:15:39.083Z,67.35
2023-01-29T07:16:39.347Z,67.14
2023-01-29T07:17:40.421Z,67.03
2023-01-29T07:19:54.701Z,66.94
2023-01-29T07:20:54.875Z,67.14
2023-01-29T07:21:55.061Z,67.45
2023-01-29T07:22:55.253Z,67.45
2023-01-29T07:23:55.494Z,67.55
2023-01-29T07:24:55.623Z,67.45
2023-01-29T07:25:55.820Z,67.24
2023-01-29T07:26:55.988Z,67.35
2023-01-29T07:27:56.161Z,67.45
2023-01-29T07:28:56.357Z,67.24
2023-01-29T07:29:56.503Z,67.32
2023-01-29T07:30:56.692Z,67.55
2023-01-29T07:31:57.005Z,67.45
2023-01-29T07:32:57.042Z,67.00
2023-01-29T07:33:57.243Z,66.91
2023-01-29T07:34:57.394Z,67.11
2023-01-29T07:35:57.578Z,67.32
2023-01-29T07:36:57.725Z,67.42
2023-01-29T07:37:57.913Z,67.42
2023-01-29T07:38:58.125Z,67.42
2023-01-29T07:39:58.263Z,67.24
2023-01-29T07:40:58.460Z,67.32
2023-01-29T07:41:58.627Z,67.32
2023-01-29T07:42:58.799Z,67.52
2023-01-29T07:43:59.023Z,67.52
2023-01-29T07:44:59.174Z,67.52
2023-01-29T07:45:59.373Z,67.52
2023-01-29T07:46:59.549Z,67.52
2023-01-29T07:47:59.694Z,67.63
2023-01-29T07:48:59.886Z,67.63
2023-01-29T07:50:00.035Z,67.73
2023-01-29T07:51:00.203Z,67.76
2023-01-29T07:52:00.404Z,67.86
2023-01-29T07:53:00.589Z,67.63
2023-01-29T07:54:00.787Z,67.63
2023-01-29T07:55:00.934Z,67.66
2023-01-29T07:56:01.107Z,67.73
2023-01-29T07:57:01.307Z,67.52
2023-01-29T07:58:01.484Z,67.42
2023-01-29T07:59:01.646Z,67.32
2023-01-29T08:00:01.799Z,67.52
2023-01-29T08:01:01.993Z,67.42
2023-01-29T08:02:02.167Z,67.52
2023-01-29T08:03:02.296Z,67.52
2023-01-29T08:04:02.506Z,73.30
2023-01-29T08:05:02.637Z,81.81
2023-01-29T08:06:02.832Z,84.08
2023-01-29T08:07:02.988Z,83.53
2023-01-29T08:08:07.791Z,83.53
2023-01-29T08:09:03.364Z,84.83
2023-01-29T08:10:03.531Z,85.92
2023-01-29T08:11:03.717Z,83.62
2023-01-29T08:12:03.861Z,80.33
2023-01-29T08:13:04.050Z,80.91
2023-01-29T08:14:04.213Z,80.56
2023-01-29T08:15:04.360Z,81.07
2023-01-29T08:16:04.538Z,79.29
2023-01-29T08:17:04.693Z,81.62
2023-01-29T08:18:04.853Z,78.60
2023-01-29T08:19:05.020Z,75.11
2023-01-29T08:20:05.181Z,73.02
2023-01-29T08:21:05.345Z,71.83
2023-01-29T08:22:05.521Z,70.56
2023-01-29T08:23:05.711Z,70.87
2023-01-29T08:24:05.874Z,70.46
2023-01-29T08:25:08.576Z,69.95
2023-01-29T08:26:06.192Z,70.97
2023-01-29T08:27:06.392Z,69.95
2023-01-29T08:28:06.565Z,70.15
2023-01-29T08:29:06.724Z,70.08
2023-01-29T08:30:06.901Z,70.36
2023-01-29T08:31:07.085Z,71.01
2023-01-29T08:32:07.267Z,70.60
2023-01-29T08:33:07.437Z,70.80
2023-01-29T08:34:07.624Z,69.78
2023-01-29T08:35:07.817Z,69.67
2023-01-29T08:36:07.984Z,69.26
2023-01-29T08:37:08.143Z,69.57
2023-01-29T08:38:08.340Z,69.16
2023-01-29T08:39:08.521Z,69.06
2023-01-29T08:40:08.654Z,69.98
2023-01-29T08:41:08.815Z,69.81
2023-01-29T08:42:08.999Z,69.19
2023-01-29T08:43:09.664Z,68.78
2023-01-29T08:44:09.378Z,67.86
2023-01-29T08:45:09.529Z,68.06
2023-01-29T08:46:09.787Z,68.88
2023-01-29T08:47:09.875Z,68.30
2023-01-29T08:48:10.049Z,68.61
2023-01-29T08:49:10.226Z,68.30
2023-01-29T08:50:10.401Z,68.91
2023-01-29T08:51:10.557Z,68.51
2023-01-29T08:52:10.717Z,68.30
2023-01-29T08:53:10.895Z,67.99
2023-01-29T08:54:11.105Z,68.61
2023-01-29T08:55:11.251Z,68.51
2023-01-29T08:56:11.433Z,67.89
2023-01-29T08:57:11.577Z,68.10
2023-01-29T08:58:11.794Z,68.19
2023-01-29T08:59:11.938Z,67.71
2023-01-29T09:00:12.099Z,67.51
2023-01-29T09:01:12.311Z,67.71
2023-01-29T09:02:12.417Z,67.82
2023-01-29T09:03:12.601Z,67.61
2023-01-29T09:04:12.795Z,67.71
2023-01-29T09:05:12.950Z,67.51
2023-01-29T09:06:13.121Z,67.51
2023-01-29T09:07:13.258Z,67.92
2023-01-29T09:08:13.440Z,67.71
2023-01-29T09:09:13.660Z,67.30
2023-01-29T09:10:13.830Z,67.10
2023-01-29T09:11:13.970Z,67.30
2023-01-29T09:12:14.124Z,67.41
2023-01-29T09:13:14.311Z,67.41
2023-01-29T09:14:14.527Z,67.44
2023-01-29T09:15:15.187Z,67.92
2023-01-29T09:16:14.831Z,67.30
2023-01-29T09:17:14.985Z,67.41
2023-01-29T09:18:15.157Z,66.89
2023-01-29T09:19:15.371Z,67.10
2023-01-29T09:20:15.507Z,67.00
2023-01-29T09:21:15.681Z,66.89
2023-01-29T09:22:15.851Z,66.58
2023-01-29T09:23:16.041Z,66.79
2023-01-29T09:24:16.228Z,66.58
2023-01-29T09:25:16.684Z,66.38
2023-01-29T09:26:16.589Z,66.48
2023-01-29T09:27:16.714Z,66.38
2023-01-29T09:28:16.893Z,66.38
2023-01-29T09:29:17.103Z,66.17
2023-01-29T09:30:17.267Z,66.00
2023-01-29T09:31:17.574Z,66.20
2023-01-29T09:32:37.753Z,66.41
2023-01-29T09:33:18.750Z,66.61
2023-01-29T09:34:17.944Z,66.31
2023-01-29T09:35:18.396Z,66.51
2023-01-29T09:36:18.284Z,66.41
2023-01-29T09:37:19.332Z,66.41
2023-01-29T09:38:18.637Z,66.20
2023-01-29T09:39:18.805Z,66.41
2023-01-29T09:40:18.969Z,66.07
2023-01-29T09:41:19.124Z,66.17
2023-01-29T09:42:19.299Z,66.17
2023-01-29T09:43:19.452Z,66.07
2023-01-29T09:44:19.699Z,66.07
2023-01-29T09:45:19.911Z,65.86
2023-01-29T09:46:20.054Z,65.86
2023-01-29T09:47:20.140Z,65.97
2023-01-29T09:48:20.329Z,65.63
2023-01-29T09:49:20.518Z,65.22
2023-01-29T09:50:20.647Z,65.32
2023-01-29T09:51:20.802Z,65.32
2023-01-29T09:52:20.966Z,65.22
2023-01-29T09:53:21.118Z,65.01
2023-01-29T09:54:21.319Z,69.91
2023-01-29T09:55:21.448Z,70.22
2023-01-29T09:56:21.635Z,69.29
2023-01-29T09:57:21.787Z,68.24
2023-01-29T09:58:21.984Z,67.21
2023-01-29T09:59:22.162Z,66.60
2023-01-29T10:00:22.318Z,66.39
2023-01-29T10:01:22.637Z,66.25
2023-01-29T10:02:22.791Z,66.36
2023-01-29T10:03:22.871Z,66.36
2023-01-29T10:04:23.112Z,65.10
2023-01-29T10:05:23.220Z,64.07
2023-01-29T10:06:23.420Z,63.66
2023-01-29T10:07:23.562Z,63.32
2023-01-29T10:08:23.757Z,63.43
2023-01-29T10:09:23.932Z,65.58
2023-01-29T10:10:24.100Z,67.08
2023-01-29T10:11:24.246Z,66.57
2023-01-29T10:12:24.446Z,66.24
2023-01-29T10:13:24.600Z,65.93
2023-01-29T10:14:24.781Z,65.69
2023-01-29T10:15:24.941Z,65.39
2023-01-29T10:16:25.107Z,64.03
2023-01-29T10:17:25.316Z,64.43
2023-01-29T10:18:25.491Z,62.66
2023-01-29T10:19:25.683Z,62.57
2023-01-29T10:20:25.825Z,62.43
2023-01-29T10:21:26.084Z,61.41
2023-01-29T10:22:26.183Z,60.97
2023-01-29T10:23:26.343Z,61.08
2023-01-29T10:24:26.559Z,59.95
2023-01-29T10:25:26.722Z,59.75
2023-01-29T10:26:26.936Z,59.23
2023-01-29T10:27:27.060Z,59.00
2023-01-29T10:28:27.248Z,58.91
2023-01-29T10:29:27.483Z,58.80
2023-01-29T10:30:27.581Z,59.11
2023-01-29T10:31:27.909Z,58.80
2023-01-29T10:32:27.910Z,58.57
2023-01-29T10:33:29.554Z,61.22
2023-01-29T10:34:28.281Z,62.04
2023-01-29T10:35:28.445Z,60.30
2023-01-29T10:36:28.599Z,59.39
2023-01-29T10:37:28.784Z,59.28
2023-01-29T10:38:28.954Z,58.98
2023-01-29T10:39:29.122Z,60.41
2023-01-29T10:40:29.321Z,60.51
2023-01-29T10:41:29.533Z,60.61
2023-01-29T10:42:29.676Z,60.41
2023-01-29T10:43:29.838Z,58.67
2023-01-29T10:44:30.056Z,58.06
2023-01-29T10:45:30.155Z,57.96
2023-01-29T10:46:30.311Z,58.37
2023-01-29T10:47:30.766Z,58.16
2023-01-29T10:48:30.638Z,58.16
2023-01-29T10:49:30.801Z,58.16
2023-01-29T10:50:30.998Z,57.65
2023-01-29T10:51:31.151Z,57.65
2023-01-29T10:52:31.390Z,57.45
2023-01-29T10:53:31.511Z,57.04
2023-01-29T10:54:31.704Z,57.34
2023-01-29T10:55:31.892Z,57.14
2023-01-29T10:56:32.068Z,56.73
2023-01-29T10:57:32.254Z,56.63
2023-01-29T10:58:32.421Z,57.04
2023-01-29T10:59:32.614Z,56.63
2023-01-29T11:00:32.795Z,56.63
2023-01-29T11:01:33.124Z,56.35
2023-01-29T11:02:33.226Z,56.96
2023-01-29T11:03:33.426Z,56.56
2023-01-29T11:04:33.547Z,56.45
2023-01-29T11:05:33.713Z,56.66
2023-01-29T11:06:34.013Z,56.66
2023-01-29T11:07:34.090Z,56.96
2023-01-29T11:08:34.254Z,57.07
2023-01-29T11:09:34.454Z,57.37
2023-01-29T11:10:34.607Z,56.66
2023-01-29T11:11:34.803Z,56.56
2023-01-29T11:12:34.974Z,56.76
2023-01-29T11:13:35.176Z,56.45
2023-01-29T11:14:35.320Z,56.96
2023-01-29T11:15:35.553Z,56.56
2023-01-29T11:16:35.676Z,56.45
2023-01-29T11:17:35.889Z,56.66
2023-01-29T11:18:36.025Z,56.66
2023-01-29T11:19:36.243Z,56.56
2023-01-29T11:20:36.382Z,56.45
2023-01-29T11:21:36.570Z,56.45
2023-01-29T11:22:36.729Z,56.66
2023-01-29T11:23:36.943Z,56.56
2023-01-29T11:24:37.086Z,56.45
2023-01-29T11:25:37.310Z,56.15
2023-01-29T11:26:37.447Z,56.76
2023-01-29T11:27:37.632Z,56.66
2023-01-29T11:28:37.894Z,56.35
2023-01-29T11:29:38.301Z,56.04
2023-01-29T11:30:38.243Z,56.04
2023-01-29T11:31:38.382Z,56.56
2023-01-29T11:32:38.513Z,56.76
2023-01-29T11:33:38.885Z,56.45
2023-01-29T11:34:38.868Z,56.76
2023-01-29T11:35:39.078Z,59.00
2023-01-29T11:36:39.214Z,58.39
2023-01-29T11:37:39.412Z,58.09
2023-01-29T11:38:39.593Z,58.60
2023-01-29T11:39:39.781Z,58.70
2023-01-29T11:40:39.925Z,58.39
2023-01-29T11:41:40.094Z,58.39
2023-01-29T11:42:40.274Z,58.80
2023-01-29T11:43:40.477Z,58.52
2023-01-29T11:44:40.684Z,58.11
2023-01-29T11:45:40.812Z,58.01
2023-01-29T11:46:41.011Z,58.83
2023-01-29T11:47:41.195Z,57.70
2023-01-29T11:48:41.331Z,57.81
2023-01-29T11:49:41.523Z,58.01
2023-01-29T11:50:41.713Z,58.42
2023-01-29T11:51:41.876Z,58.32
2023-01-29T11:52:42.076Z,57.70
2023-01-29T11:53:42.220Z,57.81
2023-01-29T11:54:42.411Z,58.01
2023-01-29T11:55:50.579Z,57.40
2023-01-29T11:56:43.763Z,57.20
2023-01-29T11:57:42.942Z,57.91
2023-01-29T11:58:43.107Z,58.01
2023-01-29T11:59:43.320Z,58.01
2023-01-29T12:00:43.470Z,57.60
2023-01-29T12:01:43.643Z,57.50
2023-01-29T12:02:43.812Z,56.89
2023-01-29T12:03:44.106Z,57.20
2023-01-29T12:04:44.192Z,56.99
2023-01-29T12:05:44.422Z,57.43
2023-01-29T12:06:44.528Z,57.02
2023-01-29T12:07:44.735Z,57.53
2023-01-29T12:08:44.903Z,57.32
2023-01-29T12:09:45.090Z,57.32
2023-01-29T12:10:45.257Z,57.63
2023-01-29T12:11:45.449Z,57.32
2023-01-29T12:12:45.642Z,57.43
2023-01-29T12:13:45.808Z,57.43
2023-01-29T12:14:45.989Z,57.93
2023-01-29T12:15:46.170Z,57.43
2023-01-29T12:16:46.351Z,57.22
2023-01-29T12:17:46.553Z,57.63
2023-01-29T12:18:46.701Z,57.73
2023-01-29T12:19:46.891Z,57.02
2023-01-29T12:20:47.067Z,57.02
2023-01-29T12:21:47.241Z,57.43
2023-01-29T12:22:47.446Z,57.32
2023-01-29T12:23:47.572Z,57.53
2023-01-29T12:24:47.745Z,57.12
2023-01-29T12:25:47.941Z,57.12
2023-01-29T12:26:48.138Z,57.22
2023-01-29T12:27:48.314Z,57.12
2023-01-29T12:28:48.527Z,57.04
2023-01-29T12:29:48.628Z,57.02
2023-01-29T12:30:48.882Z,57.04
2023-01-29T12:31:49.102Z,57.45
2023-01-29T12:32:49.176Z,57.25
2023-01-29T12:33:49.348Z,59.50
2023-01-29T12:34:49.540Z,61.44
2023-01-29T12:35:49.706Z,60.93
2023-01-29T12:36:49.888Z,61.85
2023-01-29T12:37:50.097Z,62.16
2023-01-29T12:38:50.238Z,60.62
2023-01-29T12:39:50.415Z,59.91
2023-01-29T12:40:50.605Z,60.42
2023-01-29T12:41:50.792Z,60.21
2023-01-29T12:42:50.988Z,60.42
2023-01-29T12:43:51.121Z,59.39
2023-01-29T12:44:51.293Z,58.78
2023-01-29T12:45:51.479Z,58.48
2023-01-29T12:46:51.678Z,58.37
2023-01-29T12:47:51.859Z,58.61
2023-01-29T12:48:52.008Z,58.61
2023-01-29T12:49:52.212Z,58.81
2023-01-29T12:50:52.367Z,59.01
2023-01-29T12:51:52.555Z,58.40
2023-01-29T12:52:52.741Z,58.29
2023-01-29T12:53:52.946Z,58.40
2023-01-29T12:54:53.085Z,58.61
2023-01-29T12:55:53.273Z,58.40